Time;durP1;ratioP1;P1;durP2;ratioP2;P2;SDS_P1;SDS_P2;PMS_P1;PMS_P2;Temp;Humidity;BMP_temperature;BMP_pressure;BME280_temperature;BME280_humidity;BME280_pressure;Samples;Min_cycle;Max_cycle;Signal;HPM_P1;HPM_P2
2021/11/10 00:00:09;;;;;;;28.73;15.13;;;11.10;76.80;;;;;;5015788;28;20052;-76
2021/11/10 00:02:35;;;;;;;31.50;15.43;;;11.10;76.60;;;;;;5034445;28;20341;-76
2021/11/10 00:05:05;;;;;;;61.05;33.17;;;11.10;76.70;;;;;;5019639;28;20076;-76
2021/11/10 00:07:31;;;;;;;48.40;26.85;;;11.00;77.00;;;;;;5040434;28;20364;-76
2021/11/10 00:09:57;;;;;;;49.60;24.67;;;10.80;77.50;;;;;;5055522;28;20479;-76
2021/11/10 00:12:23;;;;;;;45.67;23.00;;;10.70;78.40;;;;;;5031873;28;20037;-76
2021/11/10 00:14:49;;;;;;;47.63;22.08;;;10.60;78.90;;;;;;5015639;28;20525;-76
2021/11/10 00:17:15;;;;;;;43.58;22.65;;;10.60;79.00;;;;;;5015090;28;20025;-76
2021/11/10 00:19:41;;;;;;;47.13;23.42;;;10.60;79.10;;;;;;5015177;28;20034;-75
2021/11/10 00:22:10;;;;;;;37.92;23.33;;;10.40;78.90;;;;;;5034300;28;20080;-76
2021/11/10 00:24:35;;;;;;;36.42;19.20;;;10.50;79.20;;;;;;5035202;28;20021;-76
2021/11/10 00:27:01;;;;;;;29.88;18.25;;;10.40;79.00;;;;;;5030692;28;20061;-76
2021/11/10 00:29:27;;;;;;;36.35;19.42;;;10.40;79.10;;;;;;5015478;28;20030;-75
2021/11/10 00:31:52;;;;;;;32.97;18.80;;;10.40;79.10;;;;;;5021836;28;20396;-76
2021/11/10 00:34:18;;;;;;;36.65;19.90;;;10.40;78.90;;;;;;5027289;28;20052;-76
2021/11/10 00:36:45;;;;;;;36.67;20.38;;;10.40;78.80;;;;;;5034886;28;20021;-76
2021/11/10 00:39:11;;;;;;;44.38;21.15;;;10.30;79.00;;;;;;5026239;28;20037;-76
2021/11/10 00:41:37;;;;;;;35.33;19.48;;;10.30;79.10;;;;;;5015169;28;20040;-76
2021/11/10 00:44:04;;;;;;;31.25;17.98;;;10.20;79.10;;;;;;5015436;28;20022;-76
2021/11/10 00:46:31;;;;;;;33.40;19.90;;;10.20;79.30;;;;;;5014660;28;20026;-76
2021/11/10 00:48:56;;;;;;;29.08;17.90;;;10.20;79.50;;;;;;5015328;28;20026;-75
2021/11/10 00:51:22;;;;;;;28.20;17.00;;;10.10;79.40;;;;;;5014838;28;20032;-76
2021/11/10 00:53:48;;;;;;;31.67;17.25;;;10.20;79.50;;;;;;5014855;28;20532;-76
2021/11/10 00:56:19;;;;;;;41.30;20.00;;;10.20;79.50;;;;;;5022602;28;20418;-76
2021/11/10 00:58:45;;;;;;;39.65;17.88;;;10.20;79.30;;;;;;5035148;28;20022;-75
2021/11/10 01:01:11;;;;;;;31.25;18.08;;;10.20;79.00;;;;;;5033243;28;20029;-76
2021/11/10 01:03:37;;;;;;;34.15;19.75;;;10.20;78.90;;;;;;5034829;28;20716;-76
2021/11/10 01:06:02;;;;;;;33.80;19.17;;;10.30;78.90;;;;;;5035380;28;20029;-76
2021/11/10 01:08:28;;;;;;;34.13;19.55;;;10.30;78.80;;;;;;5030716;28;20381;-76
2021/11/10 01:10:57;;;;;;;37.38;19.77;;;10.20;78.50;;;;;;5014852;28;20018;-76
2021/11/10 01:13:26;;;;;;;33.13;20.42;;;10.30;78.50;;;;;;5014960;28;20030;-76
2021/11/10 01:15:52;;;;;;;31.65;19.40;;;10.30;78.10;;;;;;5014916;28;20026;-76
2021/11/10 01:18:18;;;;;;;36.75;18.98;;;10.30;78.10;;;;;;5014947;28;20538;-76
2021/11/10 01:20:44;;;;;;;32.75;17.63;;;10.30;77.90;;;;;;5013805;28;20046;-75
2021/11/10 01:23:11;;;;;;;35.53;18.98;;;10.20;78.60;;;;;;5015375;28;20030;-76
2021/11/10 01:25:38;;;;;;;31.40;18.45;;;10.20;79.10;;;;;;5014667;28;20485;-76
2021/11/10 01:28:09;;;;;;;33.85;19.60;;;10.20;79.30;;;;;;5034124;28;20037;-76
2021/11/10 01:30:37;;;;;;;;;;;10.40;78.90;;;;;;5035120;28;20108;-76
2021/11/10 01:33:03;;;;;;;29.10;16.52;;;10.50;78.50;;;;;;5029068;28;20040;-76
2021/11/10 01:35:28;;;;;;;30.10;17.30;;;10.40;78.50;;;;;;5014885;28;20065;-76
2021/11/10 01:37:54;;;;;;;30.70;17.88;;;10.50;78.50;;;;;;5014829;28;20097;-76
2021/11/10 01:40:21;;;;;;;30.05;16.38;;;10.40;78.80;;;;;;5014524;28;20026;-76
2021/11/10 01:42:50;;;;;;;16.35;11.10;;;10.30;78.90;;;;;;5013666;28;20036;-76
2021/11/10 01:45:16;;;;;;;32.75;19.13;;;10.20;79.00;;;;;;5014484;28;20030;-76
2021/11/10 01:47:45;;;;;;;38.90;17.13;;;10.10;79.50;;;;;;5014757;28;20028;-76
2021/11/10 01:50:13;;;;;;;28.15;16.35;;;10.10;79.50;;;;;;5032396;28;20044;-76
2021/11/10 01:52:40;;;;;;;25.50;16.73;;;10.00;79.60;;;;;;5034154;28;20030;-76
2021/11/10 01:55:06;;;;;;;39.97;18.85;;;9.90;79.70;;;;;;5023144;28;20033;-76
2021/11/10 01:57:33;;;;;;;36.55;16.98;;;9.90;78.90;;;;;;5014754;28;20077;-75
2021/11/10 02:00:07;;;;;;;30.55;16.65;;;9.80;79.10;;;;;;5018027;28;20030;-76
2021/11/10 02:02:34;;;;;;;29.00;15.27;;;9.80;79.00;;;;;;5018045;28;20034;-76
2021/11/10 02:05:00;;;;;;;30.83;16.10;;;9.80;78.90;;;;;;5017733;28;20113;-76
2021/11/10 02:07:26;;;;;;;32.17;18.05;;;9.70;79.00;;;;;;5038787;28;20053;-75
2021/11/10 02:09:52;;;;;;;30.27;17.58;;;9.70;79.00;;;;;;5037735;28;20037;-76
2021/11/10 02:12:19;;;;;;;30.83;16.40;;;9.70;78.90;;;;;;5037602;28;20025;-76
2021/11/10 02:14:45;;;;;;;27.50;17.08;;;9.70;78.80;;;;;;5036556;28;20030;-76
2021/11/10 02:17:19;;;;;;;32.45;15.57;;;9.70;78.70;;;;;;5032010;28;20576;-75
2021/11/10 02:19:45;;;;;;;31.05;16.50;;;9.70;78.60;;;;;;5017892;28;20029;-76
2021/11/10 02:22:13;;;;;;;35.97;14.70;;;9.60;78.80;;;;;;5017082;28;20045;-76
2021/11/10 02:24:40;;;;;;;27.67;14.95;;;9.60;78.60;;;;;;5022823;28;20013;-76
2021/11/10 02:27:15;;;;;;;28.92;15.65;;;9.60;78.70;;;;;;5036151;28;20025;-76
2021/11/10 02:29:41;;;;;;;27.95;14.82;;;9.50;78.90;;;;;;5037382;28;20021;-76
2021/11/10 02:32:11;;;;;;;30.83;15.43;;;9.60;78.80;;;;;;5024047;28;20033;-76
2021/11/10 02:34:39;;;;;;;30.70;14.35;;;9.60;78.70;;;;;;5017528;28;20030;-76
2021/11/10 02:37:05;;;;;;;28.52;14.20;;;9.50;78.90;;;;;;5017592;28;20025;-76
2021/11/10 02:39:31;;;;;;;22.00;11.82;;;9.50;78.90;;;;;;5017201;28;20044;-76
2021/11/10 02:41:57;;;;;;;20.05;10.55;;;9.50;79.10;;;;;;5017098;28;20021;-76
2021/11/10 02:44:23;;;;;;;22.90;11.25;;;9.60;78.90;;;;;;5017426;28;20045;-76
2021/11/10 02:46:51;;;;;;;17.92;11.10;;;9.60;78.70;;;;;;5017244;28;20023;-76
2021/11/10 02:49:19;;;;;;;24.50;11.07;;;9.50;78.80;;;;;;5016998;28;20040;-76
2021/11/10 02:51:57;;;;;;;23.23;11.77;;;9.60;78.90;;;;;;5017185;28;20032;-76
2021/11/10 02:54:24;;;;;;;21.50;11.98;;;9.60;78.90;;;;;;5016994;28;20480;-76
2021/11/10 02:56:52;;;;;;;27.73;11.50;;;9.60;78.70;;;;;;5017166;28;20546;-76
2021/11/10 02:59:17;;;;;;;24.90;12.80;;;9.60;78.50;;;;;;5015812;28;20037;-76
2021/11/10 03:01:43;;;;;;;24.23;11.30;;;9.70;78.30;;;;;;5016800;28;20026;-76
2021/11/10 03:04:19;;;;;;;27.30;11.63;;;9.80;77.90;;;;;;5016940;28;20390;-76
2021/11/10 03:06:59;;;;;;;;;;;;;;;;;;;;;
2021/11/10 03:09:28;;;;;;;19.70;10.20;;;9.80;77.60;;;;;;5036396;28;20033;-76
2021/11/10 03:12:00;;;;;;;25.42;11.65;;;9.90;77.40;;;;;;5035268;28;20030;-76
2021/11/10 03:14:27;;;;;;;22.20;10.75;;;9.90;77.20;;;;;;5036594;28;20039;-76
2021/11/10 03:16:53;;;;;;;21.55;11.13;;;9.90;76.90;;;;;;5024476;28;20606;-76
2021/11/10 03:19:19;;;;;;;16.52;10.23;;;9.90;76.90;;;;;;5016486;28;20032;-76
2021/11/10 03:21:46;;;;;;;18.23;10.10;;;9.80;76.80;;;;;;5016401;28;20073;-76
2021/11/10 03:24:11;;;;;;;19.15;10.70;;;9.80;76.90;;;;;;5016777;28;20041;-76
2021/11/10 03:26:37;;;;;;;20.15;10.70;;;9.80;77.00;;;;;;5016502;28;20041;-75
2021/11/10 03:29:03;;;;;;;16.80;10.05;;;9.70;77.00;;;;;;5016527;28;20021;-76
2021/11/10 03:31:33;;;;;;;21.90;10.60;;;9.70;77.00;;;;;;5016344;28;20112;-76
2021/11/10 03:34:00;;;;;;;20.40;10.73;;;9.60;77.30;;;;;;5016405;28;20040;-76
2021/11/10 03:36:26;;;;;;;15.68;9.65;;;9.50;77.20;;;;;;5016480;28;20983;-76
2021/11/10 03:38:52;;;;;;;19.73;10.35;;;9.50;77.20;;;;;;5016266;28;20141;-76
2021/11/10 03:41:17;;;;;;;17.23;9.95;;;9.50;77.30;;;;;;5016094;28;20029;-76
2021/11/10 03:43:43;;;;;;;20.90;11.65;;;9.50;77.40;;;;;;5016316;28;20721;-76
2021/11/10 03:46:09;;;;;;;25.45;10.95;;;9.40;77.30;;;;;;5016247;28;20022;-76
2021/11/10 03:48:35;;;;;;;21.20;11.25;;;9.40;77.20;;;;;;5014753;28;20072;-76
2021/11/10 03:51:00;;;;;;;20.30;11.48;;;9.40;77.40;;;;;;5015003;28;20083;-76
2021/11/10 03:53:26;;;;;;;20.52;11.18;;;9.30;77.20;;;;;;5014385;28;20030;-76
2021/11/10 03:55:52;;;;;;;21.40;10.95;;;9.30;77.30;;;;;;5016040;28;20076;-76
2021/11/10 03:58:18;;;;;;;25.13;12.27;;;9.30;77.40;;;;;;5014439;28;20022;-76
2021/11/10 04:00:44;;;;;;;22.38;11.05;;;9.30;77.30;;;;;;5015984;28;20045;-76
2021/11/10 04:03:10;;;;;;;20.48;11.20;;;9.30;77.40;;;;;;5014609;28;20045;-76
2021/11/10 04:05:35;;;;;;;20.33;11.20;;;9.30;77.30;;;;;;5014822;28;20121;-76
2021/11/10 04:08:01;;;;;;;20.92;11.35;;;9.20;76.90;;;;;;5049125;28;20127;-76
2021/11/10 04:10:27;;;;;;;17.88;11.93;;;9.10;77.00;;;;;;5034364;28;20030;-76
2021/11/10 04:12:53;;;;;;;23.73;12.30;;;9.10;77.40;;;;;;5015687;28;20026;-74
2021/11/10 04:15:19;;;;;;;20.60;11.35;;;9.20;77.40;;;;;;5015510;28;20826;-73
2021/11/10 04:17:44;;;;;;;19.55;11.40;;;9.20;77.30;;;;;;5015910;28;20102;-74
2021/11/10 04:20:11;;;;;;;19.02;11.43;;;9.20;77.30;;;;;;5015460;28;20030;-75
2021/11/10 04:22:37;;;;;;;22.08;12.15;;;9.10;77.20;;;;;;5014747;28;20049;-74
2021/11/10 04:25:04;;;;;;;20.45;11.43;;;9.10;77.20;;;;;;5015645;28;20014;-74
2021/11/10 04:27:29;;;;;;;22.98;12.15;;;9.10;77.30;;;;;;5032616;28;20037;-74
2021/11/10 04:29:55;;;;;;;27.33;12.77;;;9.10;77.30;;;;;;5035214;28;20026;-74
2021/11/10 04:32:23;;;;;;;25.52;11.65;;;9.10;77.30;;;;;;5034970;28;20032;-74
2021/11/10 04:34:49;;;;;;;19.77;12.32;;;9.20;77.40;;;;;;5034788;28;20026;-75
2021/11/10 04:37:15;;;;;;;19.30;11.85;;;9.20;77.20;;;;;;5021862;28;20116;-75
2021/11/10 04:39:42;;;;;;;25.67;11.65;;;9.20;76.90;;;;;;5015391;28;20028;-74
2021/11/10 04:42:09;;;;;;;26.98;13.63;;;9.30;77.10;;;;;;5029243;28;20095;-75
2021/11/10 04:44:36;;;;;;;22.00;12.30;;;9.30;77.20;;;;;;5035117;28;20034;-74
2021/11/10 04:47:03;;;;;;;26.13;13.45;;;9.20;77.50;;;;;;5033693;28;20410;-74
2021/11/10 04:49:30;;;;;;;25.27;12.18;;;9.20;77.60;;;;;;5023902;28;20034;-74
2021/11/10 04:52:03;;;;;;;22.75;12.10;;;9.20;77.70;;;;;;5015130;28;20018;-74
2021/11/10 04:54:30;;;;;;;21.77;10.98;;;9.20;77.60;;;;;;5015186;28;20097;-74
2021/11/10 04:57:00;;;;;;;23.70;12.23;;;9.20;77.50;;;;;;5015321;28;20101;-75
2021/11/10 04:59:27;;;;;;;23.05;11.77;;;9.10;77.60;;;;;;5015253;28;20081;-74
2021/11/10 05:04:34;;;;;;;25.85;11.98;;;9.00;77.40;;;;;;5015468;28;20094;-74
2021/11/10 05:07:00;;;;;;;21.50;12.68;;;9.00;77.00;;;;;;5030493;28;20075;-74
2021/11/10 05:09:26;;;;;;;25.65;11.82;;;9.00;77.40;;;;;;5054689;28;20051;-75
2021/11/10 05:11:52;;;;;;;24.50;11.25;;;8.90;77.60;;;;;;5053318;28;20063;-74
2021/11/10 05:14:18;;;;;;;20.67;11.30;;;8.90;77.70;;;;;;5044482;28;20054;-74
2021/11/10 05:16:44;;;;;;;26.25;12.15;;;8.90;77.80;;;;;;5014990;28;20029;-74
2021/11/10 05:19:09;;;;;;;19.75;10.30;;;8.80;77.60;;;;;;5015087;28;20118;-74
2021/11/10 05:21:35;;;;;;;18.02;12.45;;;8.80;77.10;;;;;;5015062;28;20054;-74
2021/11/10 05:24:04;;;;;;;19.80;12.65;;;8.80;77.70;;;;;;5013393;28;20042;-75
2021/11/10 05:26:31;;;;;;;25.42;12.40;;;8.80;77.60;;;;;;5013959;28;20076;-74
2021/11/10 05:28:57;;;;;;;23.00;11.38;;;8.80;77.50;;;;;;5016238;28;20057;-74
2021/11/10 05:31:23;;;;;;;29.60;12.68;;;8.70;77.70;;;;;;5014799;28;20065;-74
2021/11/10 05:33:49;;;;;;;26.15;12.23;;;8.80;77.30;;;;;;5018097;28;20084;-74
2021/11/10 05:36:15;;;;;;;21.50;11.15;;;8.70;77.40;;;;;;5018750;28;20552;-74
2021/11/10 05:38:41;;;;;;;21.85;11.05;;;8.70;77.40;;;;;;5018686;28;20171;-74
2021/11/10 05:41:07;;;;;;;16.70;10.55;;;8.70;77.70;;;;;;5018281;28;20051;-74
2021/11/10 05:43:33;;;;;;;27.38;11.98;;;8.60;77.40;;;;;;5029750;28;20025;-74
2021/11/10 05:45:59;;;;;;;18.63;10.70;;;8.60;77.40;;;;;;5018357;28;20022;-74
2021/11/10 05:48:25;;;;;;;19.25;9.77;;;8.60;77.30;;;;;;5018175;28;20030;-74
2021/11/10 05:50:51;;;;;;;17.13;10.90;;;8.60;77.50;;;;;;5018392;28;20053;-73
2021/11/10 05:53:17;;;;;;;26.08;11.93;;;8.50;77.80;;;;;;5018167;28;20041;-76
2021/11/10 05:55:44;;;;;;;19.45;10.35;;;8.50;77.90;;;;;;5018306;28;20030;-76
2021/11/10 05:58:18;;;;;;;19.98;11.10;;;8.50;77.50;;;;;;5018164;28;20026;-75
2021/11/10 06:00:43;;;;;;;21.73;10.57;;;8.50;77.40;;;;;;5017622;28;20519;-78
2021/11/10 06:03:09;;;;;;;18.52;10.60;;;8.50;77.40;;;;;;5018191;28;20030;-81
2021/11/10 06:05:35;;;;;;;15.80;9.55;;;8.50;77.00;;;;;;5017815;28;20236;-77
2021/11/10 06:08:01;;;;;;;19.38;9.88;;;8.50;77.40;;;;;;5050993;28;20056;-77
2021/11/10 06:10:26;;;;;;;22.10;10.63;;;8.50;77.40;;;;;;5046709;28;20101;-79
2021/11/10 06:12:52;;;;;;;18.05;9.57;;;8.50;77.10;;;;;;5053944;28;20033;-80
2021/11/10 06:15:21;;;;;;;20.90;9.98;;;8.40;77.50;;;;;;5053050;28;20028;-80
2021/11/10 06:17:47;;;;;;;22.10;9.68;;;8.40;77.40;;;;;;5052917;28;20712;-79
2021/11/10 06:20:14;;;;;;;18.67;9.80;;;8.50;77.50;;;;;;5057091;28;20057;-81
2021/11/10 06:22:40;;;;;;;15.60;9.10;;;8.50;77.40;;;;;;5029155;28;20419;-86
2021/11/10 06:25:06;;;;;;;18.25;9.45;;;8.40;77.20;;;;;;5031979;28;20029;-84
2021/11/10 06:27:32;;;;;;;14.75;8.55;;;8.40;77.00;;;;;;5033952;28;20156;-85
2021/11/10 06:30:00;;;;;;;21.38;10.85;;;8.40;77.30;;;;;;5035732;28;20064;-85
2021/11/10 06:32:25;;;;;;;22.85;9.95;;;8.30;77.20;;;;;;5034850;28;20024;-86
2021/11/10 06:34:51;;;;;;;13.23;8.48;;;8.30;77.20;;;;;;5018731;28;20491;-85
2021/11/10 06:37:17;;;;;;;17.58;8.68;;;8.20;77.40;;;;;;5033611;28;20026;-86
2021/11/10 06:39:43;;;;;;;20.73;9.93;;;8.30;77.40;;;;;;5036566;28;20428;-83
2021/11/10 06:42:09;;;;;;;15.70;9.20;;;8.30;77.40;;;;;;5038228;28;20465;-83
2021/11/10 06:44:35;;;;;;;17.05;9.38;;;8.30;77.40;;;;;;5035230;28;20049;-80
2021/11/10 06:47:02;;;;;;;19.95;9.93;;;8.30;77.20;;;;;;5036025;28;20068;-84
2021/11/10 06:49:31;;;;;;;16.00;8.52;;;8.30;77.30;;;;;;5035161;28;20524;-83
2021/11/10 06:51:57;;;;;;;18.25;8.80;;;8.20;77.20;;;;;;5035131;28;20036;-85
2021/11/10 06:54:24;;;;;;;21.02;10.90;;;8.20;77.10;;;;;;5036071;28;20041;-84
2021/11/10 06:56:50;;;;;;;22.10;9.73;;;8.20;77.20;;;;;;5034206;28;20040;-85
2021/11/10 06:59:17;;;;;;;24.80;10.60;;;8.10;77.50;;;;;;5034704;28;20025;-85
2021/11/10 07:01:43;;;;;;;17.20;9.00;;;8.10;77.50;;;;;;5035572;28;20388;-84
2021/11/10 07:04:08;;;;;;;23.13;10.85;;;8.10;77.30;;;;;;5032360;28;20021;-86
2021/11/10 07:06:34;;;;;;;23.83;10.82;;;8.10;77.40;;;;;;5036201;28;20040;-85
2021/11/10 07:09:00;;;;;;;21.48;10.10;;;8.10;77.40;;;;;;5034837;28;20037;-86
2021/11/10 07:11:26;;;;;;;21.35;10.05;;;8.20;77.70;;;;;;5035596;28;20022;-85
2021/11/10 07:13:51;;;;;;;24.67;11.50;;;8.20;77.60;;;;;;5034531;28;20035;-85
2021/11/10 07:16:17;;;;;;;27.02;10.25;;;8.20;77.60;;;;;;5030195;28;20037;-86
2021/11/10 07:18:43;;;;;;;22.67;10.90;;;8.30;77.50;;;;;;5030124;28;20030;-84
2021/11/10 07:21:09;;;;;;;19.25;9.77;;;8.40;77.30;;;;;;5026030;28;20069;-85
2021/11/10 07:23:35;;;;;;;16.13;9.50;;;8.40;77.00;;;;;;5032018;28;20427;-85
2021/11/10 07:26:02;;;;;;;18.58;9.63;;;8.40;77.20;;;;;;5028163;28;20041;-85
2021/11/10 07:28:28;;;;;;;18.02;11.05;;;8.50;77.00;;;;;;5015811;28;20392;-85
2021/11/10 07:30:54;;;;;;;20.80;9.57;;;8.60;76.90;;;;;;5014367;28;20116;-85
2021/11/10 07:33:20;;;;;;;23.10;10.00;;;8.70;76.70;;;;;;5026818;28;20105;-84
2021/11/10 07:35:46;;;;;;;22.42;10.05;;;8.80;76.30;;;;;;5031227;28;20026;-84
2021/11/10 07:38:13;;;;;;;17.00;9.57;;;8.80;76.10;;;;;;5020539;28;20048;-85
2021/11/10 07:40:39;;;;;;;19.95;9.43;;;8.90;76.10;;;;;;5028781;28;20446;-84
2021/11/10 07:43:05;;;;;;;19.73;9.15;;;8.80;75.90;;;;;;5020189;28;20148;-86
2021/11/10 07:45:38;;;;;;;18.23;12.00;;;8.90;75.70;;;;;;5035999;28;20131;-84
2021/11/10 07:48:07;;;;;;;36.70;19.67;;;9.00;75.80;;;;;;5034340;28;20041;-85
2021/11/10 07:50:33;;;;;;;28.98;14.38;;;9.00;75.40;;;;;;5025073;28;20133;-85
2021/11/10 07:53:00;;;;;;;26.35;14.45;;;9.10;75.30;;;;;;5014377;28;20034;-85
2021/11/10 07:55:27;;;;;;;20.05;9.95;;;9.00;75.40;;;;;;5013788;28;20408;-85
2021/11/10 07:57:54;;;;;;;23.65;11.48;;;9.00;75.30;;;;;;5030779;28;20089;-86
2021/11/10 08:00:21;;;;;;;20.15;10.68;;;9.00;75.60;;;;;;5015993;28;20028;-85
2021/11/10 08:02:47;;;;;;;22.83;11.23;;;9.00;75.50;;;;;;5015793;28;20069;-85
2021/11/10 08:05:15;;;;;;;19.45;9.80;;;9.00;75.50;;;;;;5014497;28;20033;-86
2021/11/10 08:07:41;;;;;;;24.05;11.60;;;9.00;75.60;;;;;;5043230;28;20036;-85
2021/11/10 08:10:08;;;;;;;24.23;12.38;;;9.10;75.70;;;;;;5036669;28;20112;-85
2021/11/10 08:12:36;;;;;;;18.95;11.07;;;9.10;75.70;;;;;;5035451;28;20557;-85
2021/11/10 08:15:11;;;;;;;26.77;11.13;;;9.10;75.40;;;;;;5030435;28;20026;-85
2021/11/10 08:17:38;;;;;;;16.60;9.95;;;9.20;75.20;;;;;;5015744;28;20128;-85
2021/11/10 08:20:06;;;;;;;18.70;10.35;;;9.20;75.40;;;;;;5015710;28;20112;-85
2021/11/10 08:22:32;;;;;;;20.73;10.43;;;9.40;75.20;;;;;;5013902;28;20049;-85
2021/11/10 08:24:58;;;;;;;18.73;9.38;;;9.50;74.30;;;;;;5015790;28;20049;-85
2021/11/10 08:27:26;;;;;;;21.20;10.32;;;9.50;73.90;;;;;;5015840;28;20053;-85
2021/11/10 08:29:51;;;;;;;20.38;10.18;;;9.60;74.20;;;;;;5015492;28;20507;-85
2021/11/10 08:32:18;;;;;;;20.35;9.88;;;9.70;74.20;;;;;;5015226;28;20038;-85
2021/11/10 08:34:43;;;;;;;15.32;9.13;;;9.70;74.20;;;;;;5015013;28;20026;-85
2021/11/10 08:37:09;;;;;;;22.58;9.75;;;9.60;73.90;;;;;;5015473;28;20503;-85
2021/11/10 08:39:35;;;;;;;21.77;10.45;;;9.60;73.60;;;;;;5015539;28;20532;-85
2021/11/10 08:42:03;;;;;;;20.38;9.63;;;9.60;73.90;;;;;;5015391;28;20072;-85
2021/11/10 08:44:29;;;;;;;17.08;9.02;;;9.60;73.30;;;;;;5030482;28;20025;-85
2021/11/10 08:46:56;;;;;;;21.73;10.40;;;9.70;73.80;;;;;;5033771;28;20045;-84
2021/11/10 08:49:22;;;;;;;28.05;17.80;;;9.70;73.80;;;;;;5023484;28;20030;-85
2021/11/10 08:51:48;;;;;;;26.70;14.15;;;9.70;73.50;;;;;;5014907;28;20492;-85
2021/11/10 08:54:14;;;;;;;22.90;11.13;;;9.80;73.10;;;;;;5013954;28;20132;-85
2021/11/10 08:56:40;;;;;;;12.77;9.02;;;9.80;73.30;;;;;;5015281;28;20055;-84
2021/11/10 08:59:06;;;;;;;15.50;8.80;;;9.80;73.10;;;;;;5015226;28;20085;-85
2021/11/10 09:01:34;;;;;;;16.70;9.65;;;9.70;74.20;;;;;;5015145;28;20493;-85
2021/11/10 09:04:01;;;;;;;16.05;9.65;;;9.80;73.80;;;;;;5015275;28;20025;-85
2021/11/10 09:06:26;;;;;;;15.85;9.88;;;9.90;73.20;;;;;;5022238;28;20075;-85
2021/11/10 09:08:52;;;;;;;21.75;10.70;;;10.20;72.90;;;;;;5058205;28;20025;-84
2021/11/10 09:11:18;;;;;;;18.48;11.95;;;10.80;70.10;;;;;;5058738;28;20033;-85
2021/11/10 09:13:44;;;;;;;14.50;11.45;;;11.50;68.60;;;;;;5058915;28;20099;-85
2021/11/10 09:16:11;;;;;;;17.30;10.57;;;12.30;65.00;;;;;;5029157;28;20794;-85
2021/11/10 09:18:38;;;;;;;13.88;9.73;;;13.20;64.10;;;;;;5018668;28;20109;-85
2021/11/10 09:21:05;;;;;;;14.30;7.70;;;13.20;60.90;;;;;;5034044;28;20046;-85
2021/11/10 09:23:31;;;;;;;12.10;7.38;;;13.40;61.60;;;;;;5018963;28;20037;-85
2021/11/10 09:25:57;;;;;;;13.18;8.30;;;13.10;60.80;;;;;;5018914;28;20493;-85
2021/11/10 09:28:23;;;;;;;16.77;8.43;;;12.70;61.30;;;;;;5018646;28;20041;-85
2021/11/10 09:30:52;;;;;;;15.65;8.00;;;12.20;62.80;;;;;;5018817;28;20034;-85
2021/11/10 09:33:19;;;;;;;14.93;10.55;;;11.90;64.20;;;;;;5018715;28;20026;-85
2021/11/10 09:35:46;;;;;;;20.77;10.10;;;11.70;64.60;;;;;;5018584;28;20030;-85
2021/11/10 09:38:12;;;;;;;16.98;10.60;;;11.60;66.10;;;;;;5018554;28;20480;-86
2021/11/10 09:40:40;;;;;;;13.95;7.55;;;11.70;65.50;;;;;;5017223;28;20531;-85
2021/11/10 09:43:06;;;;;;;15.15;8.68;;;11.70;64.90;;;;;;5020075;28;20504;-85
2021/11/10 09:45:34;;;;;;;18.98;8.07;;;11.60;65.50;;;;;;5016889;28;20025;-85
2021/11/10 09:48:06;;;;;;;14.73;8.52;;;11.50;66.70;;;;;;5016936;28;20057;-84
2021/11/10 09:50:34;;;;;;;12.60;7.40;;;11.30;66.70;;;;;;5018607;28;20030;-86
2021/11/10 09:53:00;;;;;;;17.38;8.50;;;11.30;67.90;;;;;;5018318;28;20041;-84
2021/11/10 09:55:28;;;;;;;17.42;8.70;;;11.20;68.30;;;;;;5018250;28;20105;-85
2021/11/10 09:57:55;;;;;;;17.63;7.68;;;11.20;68.30;;;;;;5018119;28;20025;-85
2021/11/10 10:00:29;;;;;;;14.10;8.68;;;11.20;68.00;;;;;;5018272;28;20056;-85
2021/11/10 10:02:55;;;;;;;16.15;8.48;;;11.20;67.80;;;;;;5017919;28;20050;-85
2021/11/10 10:05:26;;;;;;;12.15;7.60;;;11.20;68.20;;;;;;5017978;28;20022;-85
2021/11/10 10:07:53;;;;;;;12.75;7.40;;;11.20;68.20;;;;;;5048667;28;20049;-86
2021/11/10 10:10:24;;;;;;;15.27;7.80;;;11.20;67.90;;;;;;5036153;28;20026;-86
2021/11/10 10:12:53;;;;;;;12.45;7.63;;;11.20;68.60;;;;;;5018165;28;20038;-85
2021/11/10 10:15:21;;;;;;;13.52;7.88;;;11.30;68.30;;;;;;5017941;28;20128;-86
2021/11/10 10:17:56;;;;;;;16.05;9.07;;;11.40;68.00;;;;;;5017794;28;20030;-85
2021/11/10 10:20:27;;;;;;;16.98;7.93;;;11.40;68.10;;;;;;5016635;28;20029;-86
2021/11/10 10:22:54;;;;;;;14.32;7.40;;;11.50;68.10;;;;;;5017661;28;20057;-86
2021/11/10 10:25:20;;;;;;;13.52;7.57;;;11.40;66.60;;;;;;5017963;28;20052;-86
2021/11/10 10:27:58;;;;;;;16.48;7.07;;;11.50;67.80;;;;;;5022030;28;20496;-86
2021/11/10 10:30:24;;;;;;;11.60;7.00;;;11.60;66.00;;;;;;5016352;28;20076;-86
2021/11/10 10:33:00;;;;;;;12.00;7.00;;;11.60;65.90;;;;;;5017573;28;20053;-86
2021/11/10 10:35:32;;;;;;;10.98;7.10;;;11.60;65.80;;;;;;5029418;28;20036;-86
2021/11/10 10:38:00;;;;;;;10.23;6.60;;;11.70;65.50;;;;;;5037269;28;20033;-86
2021/11/10 10:40:30;;;;;;;12.15;6.30;;;11.80;65.20;;;;;;5037136;28;20511;-87
2021/11/10 10:42:56;;;;;;;16.65;8.57;;;11.80;65.60;;;;;;5029121;28;20060;-86
2021/11/10 10:45:34;;;;;;;12.05;7.55;;;11.80;64.70;;;;;;5037233;28;20030;-86
2021/11/10 10:48:07;;;;;;;15.52;8.35;;;11.80;65.20;;;;;;5037236;28;20025;-86
2021/11/10 10:50:55;;;;;;;14.02;6.85;;;11.80;65.80;;;;;;5026611;28;20068;-86
2021/11/10 10:53:39;;;;;;;10.98;6.38;;;11.90;66.00;;;;;;5017166;28;20030;-87
2021/11/10 10:56:25;;;;;;;11.13;6.22;;;11.90;64.70;;;;;;5016967;28;20025;-85
2021/11/10 10:58:56;;;;;;;15.52;8.40;;;11.90;63.40;;;;;;5017265;28;20022;-87
2021/11/10 11:01:33;;;;;;;22.63;10.80;;;11.80;63.70;;;;;;5017108;28;20033;-87
2021/11/10 11:04:12;;;;;;;20.30;13.82;;;11.90;63.40;;;;;;5017161;28;20485;-86
2021/11/10 11:06:46;;;;;;;18.95;9.38;;;11.90;64.20;;;;;;5026567;28;20036;-87
2021/11/10 11:09:14;;;;;;;14.40;7.50;;;11.90;64.80;;;;;;5056868;28;20029;-87
2021/11/10 11:11:58;;;;;;;16.42;8.35;;;12.10;63.70;;;;;;5018251;28;20095;-86
2021/11/10 11:14:45;;;;;;;15.05;10.35;;;12.10;64.30;;;;;;5016551;28;20033;-88
2021/11/10 11:17:23;;;;;;;14.95;8.30;;;12.10;64.40;;;;;;5016926;28;20488;-87
2021/11/10 11:20:04;;;;;;;13.10;8.80;;;12.20;64.10;;;;;;5016890;28;20025;-88
2021/11/10 11:22:32;;;;;;;17.25;10.65;;;12.30;64.20;;;;;;5016945;28;20050;-87
2021/11/10 11:25:14;;;;;;;15.68;8.88;;;12.20;62.70;;;;;;5016980;28;20091;-89
2021/11/10 11:27:57;;;;;;;12.10;7.43;;;12.30;62.80;;;;;;5018472;28;20025;-88
2021/11/10 11:30:28;;;;;;;14.48;7.90;;;12.30;61.90;;;;;;5028921;28;20480;-87
2021/11/10 11:32:55;;;;;;;14.80;7.75;;;12.40;62.80;;;;;;5035981;28;20080;-87
2021/11/10 11:35:24;;;;;;;13.10;7.60;;;12.40;62.30;;;;;;5035611;28;20029;-88
2021/11/10 11:37:50;;;;;;;16.27;9.57;;;12.50;62.30;;;;;;5036515;28;20014;-88
2021/11/10 11:40:19;;;;;;;16.38;6.97;;;12.60;62.20;;;;;;5035179;28;20029;-88
2021/11/10 11:42:46;;;;;;;12.63;6.40;;;12.60;61.40;;;;;;5036126;28;20026;-88
2021/11/10 11:45:13;;;;;;;12.38;7.32;;;12.60;61.30;;;;;;5023425;28;20030;-87
2021/11/10 11:47:40;;;;;;;11.15;7.28;;;12.60;60.10;;;;;;5016463;28;20089;-84
2021/11/10 11:50:07;;;;;;;14.80;8.60;;;12.60;60.40;;;;;;5017037;28;20030;-84
2021/11/10 11:52:33;;;;;;;15.10;8.05;;;12.80;61.30;;;;;;5014761;28;20029;-86
2021/11/10 11:55:11;;;;;;;14.40;7.55;;;12.80;61.00;;;;;;5016542;28;20088;-86
2021/11/10 11:57:40;;;;;;;13.68;7.53;;;12.80;61.20;;;;;;5016113;28;20440;-86
2021/11/10 12:00:07;;;;;;;13.63;7.32;;;12.90;62.30;;;;;;5016269;28;20028;-86
2021/11/10 12:02:44;;;;;;;15.40;7.82;;;12.90;61.40;;;;;;5016177;28;20097;-86
2021/11/10 12:05:20;;;;;;;16.40;7.65;;;13.00;61.50;;;;;;5015993;28;20026;-86
2021/11/10 12:07:57;;;;;;;13.95;8.00;;;13.10;62.30;;;;;;5044620;28;20499;-86
2021/11/10 12:10:23;;;;;;;16.70;7.60;;;13.20;62.10;;;;;;5044210;28;20029;-86
2021/11/10 12:13:08;;;;;;;17.55;10.40;;;13.20;62.30;;;;;;5035436;28;20033;-86
2021/11/10 12:16:04;;;;;;;13.40;7.05;;;13.30;62.20;;;;;;5035590;28;20095;-86
2021/11/10 12:18:40;;;;;;;17.95;7.65;;;13.30;61.60;;;;;;5023497;28;20042;-86
2021/11/10 12:21:06;;;;;;;12.98;6.80;;;13.50;61.90;;;;;;5015706;28;20050;-86
2021/11/10 12:23:50;;;;;;;11.05;6.40;;;13.50;61.00;;;;;;5015623;28;20022;-86
2021/11/10 12:26:17;;;;;;;15.57;6.20;;;13.50;62.30;;;;;;5015795;28;20458;-86
2021/11/10 12:28:57;;;;;;;13.38;6.45;;;13.50;61.70;;;;;;5015298;28;20789;-86
2021/11/10 12:31:33;;;;;;;13.60;6.38;;;13.50;62.10;;;;;;5015674;28;20018;-86
2021/11/10 12:34:12;;;;;;;16.25;5.78;;;13.60;61.30;;;;;;5015601;28;20025;-86
2021/11/10 12:37:03;;;;;;;12.57;6.47;;;13.60;61.00;;;;;;5030601;28;20029;-86
2021/11/10 12:39:36;;;;;;;9.23;5.50;;;13.60;60.50;;;;;;5033912;28;20051;-86
2021/11/10 12:42:05;;;;;;;9.32;5.13;;;13.60;60.90;;;;;;5029994;28;20033;-86
2021/11/10 12:44:44;;;;;;;8.50;4.38;;;13.60;60.90;;;;;;5030546;28;20639;-85